createdAt,value
2018-05-16T00:00:04.091Z,98.40
2018-05-16T00:02:33.719Z,98.20
2018-05-16T00:05:02.951Z,98.10
2018-05-16T00:07:32.188Z,98.30
2018-05-16T00:10:02.239Z,98.30
2018-05-16T00:12:31.486Z,98.30
2018-05-16T00:15:00.719Z,98.30
2018-05-16T00:17:30.366Z,98.30
2018-05-16T00:19:59.679Z,98.30
2018-05-16T00:22:29.674Z,98.50
2018-05-16T00:24:59.047Z,98.40
2018-05-16T00:27:28.267Z,98.50
2018-05-16T00:29:57.932Z,98.50
2018-05-16T00:32:27.179Z,98.50
2018-05-16T00:34:56.703Z,98.60
2018-05-16T00:37:25.917Z,98.50
2018-05-16T00:39:55.251Z,98.50
2018-05-16T00:42:24.494Z,98.60
2018-05-16T00:44:53.834Z,98.60
2018-05-16T00:47:23.069Z,98.70
2018-05-16T00:49:52.420Z,98.80
2018-05-16T00:52:21.646Z,98.90
2018-05-16T00:54:50.991Z,98.80
2018-05-16T00:57:20.283Z,98.90
2018-05-16T00:59:49.486Z,98.90
2018-05-16T01:02:18.835Z,99.20
2018-05-16T01:04:48.075Z,99.30
2018-05-16T01:07:17.432Z,99.30
2018-05-16T01:09:46.667Z,99.30
2018-05-16T01:12:15.990Z,99.30
2018-05-16T01:14:45.227Z,99.30
2018-05-16T01:17:14.562Z,99.10
2018-05-16T01:19:43.794Z,99.10
2018-05-16T01:22:13.137Z,99.20
2018-05-16T01:24:42.417Z,99.40
2018-05-16T01:27:11.768Z,99.60
2018-05-16T01:29:41.000Z,99.70
2018-05-16T01:32:10.528Z,99.80
2018-05-16T01:34:39.725Z,99.80
2018-05-16T01:37:10.030Z,99.80
2018-05-16T01:39:39.269Z,99.80
2018-05-16T01:42:08.627Z,99.90
2018-05-16T01:44:37.868Z,99.90
2018-05-16T01:47:21.770Z,99.90
2018-05-16T01:49:51.011Z,99.90
2018-05-16T01:52:21.193Z,99.90
2018-05-16T01:54:50.423Z,99.90
2018-05-16T01:57:19.649Z,99.90
2018-05-16T01:59:49.303Z,99.90
2018-05-16T02:02:18.539Z,99.90
2018-05-16T02:04:47.828Z,99.90
2018-05-16T02:07:17.428Z,99.90
2018-05-16T02:09:46.642Z,99.90
2018-05-16T02:12:15.874Z,99.90
2018-05-16T02:14:45.517Z,99.90
2018-05-16T02:17:14.755Z,99.90
2018-05-16T02:19:44.002Z,99.90
2018-05-16T02:22:13.630Z,99.90
2018-05-16T02:24:43.155Z,99.90
2018-05-16T02:27:13.159Z,99.90
2018-05-16T02:29:42.775Z,99.90
2018-05-16T02:32:12.770Z,99.90
2018-05-16T02:34:42.391Z,99.90
2018-05-16T02:37:12.711Z,99.90
2018-05-16T02:39:42.332Z,99.90
2018-05-16T02:42:11.941Z,99.90
2018-05-16T02:44:41.172Z,99.90
2018-05-16T02:47:10.952Z,99.90
2018-05-16T02:49:40.963Z,99.90
2018-05-16T02:52:10.569Z,99.90
2018-05-16T02:54:40.052Z,99.90
2018-05-16T02:57:09.291Z,99.90
2018-05-16T02:59:38.879Z,99.90
2018-05-16T03:02:08.122Z,99.90
2018-05-16T03:04:37.358Z,99.90
2018-05-16T03:07:06.993Z,99.90
2018-05-16T03:09:36.246Z,99.90
2018-05-16T03:12:05.488Z,99.90
2018-05-16T03:14:35.296Z,99.90
2018-05-16T03:17:04.539Z,99.90
2018-05-16T03:19:33.786Z,99.90
2018-05-16T03:22:04.857Z,99.90
2018-05-16T03:24:34.324Z,99.90
2018-05-16T03:27:03.563Z,99.90
2018-05-16T03:29:33.354Z,99.90
2018-05-16T03:32:02.598Z,99.90
2018-05-16T03:34:31.839Z,99.90
2018-05-16T03:37:01.455Z,99.90
2018-05-16T03:39:30.700Z,99.90
2018-05-16T03:41:59.939Z,99.90
2018-05-16T03:44:29.606Z,99.90
2018-05-16T03:46:58.895Z,99.90
2018-05-16T03:49:30.224Z,99.90
2018-05-16T03:51:59.540Z,99.90
2018-05-16T03:54:28.791Z,99.90
2018-05-16T03:56:58.531Z,99.90
2018-05-16T03:59:45.327Z,99.90
2018-05-16T04:02:32.767Z,99.90
2018-05-16T04:05:02.008Z,99.90
2018-05-16T04:07:31.247Z,99.90
2018-05-16T04:10:00.873Z,99.90
2018-05-16T04:12:30.114Z,99.90
2018-05-16T04:14:59.790Z,99.90
2018-05-16T04:17:29.444Z,99.90
2018-05-16T04:20:00.163Z,99.90
2018-05-16T04:22:29.840Z,99.90
2018-05-16T04:24:59.353Z,99.90
2018-05-16T04:27:30.087Z,99.90
2018-05-16T04:30:00.111Z,99.90
2018-05-16T04:32:29.914Z,99.90
2018-05-16T04:34:59.432Z,99.90
2018-05-16T04:37:29.743Z,99.90
2018-05-16T04:39:59.255Z,99.90
2018-05-16T04:42:28.775Z,99.90
2018-05-16T04:44:58.453Z,99.90
2018-05-16T04:47:28.579Z,99.90
2018-05-16T04:49:57.816Z,99.90
2018-05-16T04:52:27.617Z,99.90
2018-05-16T04:54:56.995Z,99.90
2018-05-16T04:57:27.433Z,99.90
2018-05-16T04:59:57.355Z,99.90
2018-05-16T05:02:26.588Z,99.90
2018-05-16T05:04:56.202Z,99.90
2018-05-16T05:07:26.350Z,99.90
2018-05-16T05:09:55.719Z,99.90
2018-05-16T05:12:25.298Z,99.90
2018-05-16T05:14:54.541Z,99.90
2018-05-16T05:17:23.925Z,99.90
2018-05-16T05:19:53.559Z,99.90
2018-05-16T05:22:22.813Z,99.90
2018-05-16T05:24:52.606Z,99.90
2018-05-16T05:27:22.134Z,99.90
2018-05-16T05:29:51.359Z,99.90
2018-05-16T05:32:20.594Z,99.90
2018-05-16T05:34:50.223Z,99.90
2018-05-16T05:37:19.467Z,99.90
2018-05-16T05:39:49.067Z,99.90
2018-05-16T05:42:19.318Z,99.90
2018-05-16T05:44:48.564Z,99.90
2018-05-16T05:47:17.835Z,99.90
2018-05-16T05:49:47.483Z,99.90
2018-05-16T05:52:17.501Z,99.10
2018-05-16T05:54:46.753Z,99.00
2018-05-16T05:57:16.410Z,98.10
2018-05-16T05:59:45.639Z,96.70
2018-05-16T06:02:14.893Z,95.80
2018-05-16T06:04:44.574Z,94.50
2018-05-16T06:07:13.806Z,94.50
2018-05-16T06:09:43.811Z,93.70
2018-05-16T06:12:13.437Z,93.70
2018-05-16T06:14:43.454Z,93.40
2018-05-16T06:17:12.685Z,93.30
2018-05-16T06:19:42.694Z,93.40
2018-05-16T06:22:11.965Z,93.40
2018-05-16T06:24:41.212Z,92.90
2018-05-16T06:27:10.777Z,92.90
2018-05-16T06:29:40.106Z,93.40
2018-05-16T06:32:09.390Z,93.70
2018-05-16T06:34:39.279Z,93.70
2018-05-16T06:37:09.027Z,94.20
2018-05-16T06:39:38.263Z,94.20
2018-05-16T06:42:07.891Z,93.60
2018-05-16T06:44:38.823Z,92.90
2018-05-16T06:47:09.254Z,92.10
2018-05-16T06:49:38.495Z,92.10
2018-05-16T06:52:08.514Z,92.80
2018-05-16T06:54:38.322Z,92.80
2018-05-16T06:57:08.332Z,92.80
2018-05-16T06:59:38.347Z,92.70
2018-05-16T07:02:08.642Z,92.30
2018-05-16T07:04:38.858Z,92.30
2018-05-16T07:07:08.920Z,93.10
2018-05-16T07:09:39.435Z,93.20
2018-05-16T07:12:09.446Z,92.50
2018-05-16T07:14:38.700Z,92.20
2018-05-16T07:17:08.358Z,91.90
2018-05-16T07:19:37.919Z,91.50
2018-05-16T07:22:07.302Z,89.10
2018-05-16T07:24:37.282Z,89.60
2018-05-16T07:27:06.526Z,90.40
2018-05-16T07:29:35.762Z,90.30
2018-05-16T07:32:05.805Z,91.40
2018-05-16T07:34:35.044Z,91.40
2018-05-16T07:37:04.290Z,91.50
2018-05-16T07:39:33.915Z,91.60
2018-05-16T07:42:03.547Z,91.80
2018-05-16T07:44:32.798Z,92.00
2018-05-16T07:47:02.832Z,90.50
2018-05-16T07:49:31.874Z,89.40
2018-05-16T07:52:01.124Z,87.20
2018-05-16T07:54:31.568Z,84.10
2018-05-16T07:57:01.219Z,82.50
2018-05-16T07:59:30.590Z,81.30
2018-05-16T08:02:01.177Z,80.20
2018-05-16T08:04:30.374Z,80.20
2018-05-16T08:06:59.607Z,81.00
2018-05-16T08:09:29.207Z,83.20
2018-05-16T08:11:58.434Z,85.10
2018-05-16T08:14:27.667Z,87.10
2018-05-16T08:16:57.315Z,86.00
2018-05-16T08:19:26.550Z,86.10
2018-05-16T08:21:56.015Z,86.80
2018-05-16T08:24:25.830Z,86.70
2018-05-16T08:26:55.057Z,89.30
2018-05-16T08:29:24.313Z,88.20
2018-05-16T08:31:53.934Z,88.80
2018-05-16T08:34:23.170Z,88.20
2018-05-16T08:36:52.509Z,88.90
2018-05-16T08:39:22.051Z,88.70
2018-05-16T08:41:51.292Z,90.20
2018-05-16T08:44:20.522Z,90.80
2018-05-16T08:46:50.153Z,91.00
2018-05-16T08:49:19.762Z,91.20
2018-05-16T08:51:49.820Z,90.80
2018-05-16T08:54:20.187Z,90.30
2018-05-16T08:56:49.440Z,90.20
2018-05-16T08:59:18.695Z,89.20
2018-05-16T09:01:48.239Z,89.40
2018-05-16T09:04:19.179Z,87.90
2018-05-16T09:06:49.287Z,88.50
2018-05-16T09:09:19.294Z,88.00
2018-05-16T09:11:48.699Z,87.90
2018-05-16T09:14:17.926Z,86.20
2018-05-16T09:16:47.295Z,86.90
2018-05-16T09:19:16.738Z,86.30
2018-05-16T09:21:46.114Z,87.40
2018-05-16T09:24:16.122Z,87.00
2018-05-16T09:26:45.538Z,86.90
2018-05-16T09:29:14.774Z,86.50
2018-05-16T09:31:44.148Z,86.90
2018-05-16T09:34:14.142Z,85.10
2018-05-16T09:36:43.542Z,85.10
2018-05-16T09:39:13.050Z,86.10
2018-05-16T09:41:42.287Z,87.10
2018-05-16T09:44:11.661Z,88.50
2018-05-16T09:46:40.895Z,89.00
2018-05-16T09:49:10.877Z,88.60
2018-05-16T09:51:40.105Z,89.20
2018-05-16T09:54:09.479Z,88.20
2018-05-16T09:56:39.084Z,88.30
2018-05-16T09:59:08.487Z,87.30
2018-05-16T10:01:37.732Z,87.30
2018-05-16T10:04:07.243Z,88.00
2018-05-16T10:06:36.490Z,88.20
2018-05-16T10:09:05.884Z,89.10
2018-05-16T10:11:35.070Z,87.20
2018-05-16T10:14:04.473Z,86.10
2018-05-16T10:16:33.701Z,85.30
2018-05-16T10:19:03.546Z,85.60
2018-05-16T10:21:32.785Z,85.20
2018-05-16T10:24:02.237Z,85.60
2018-05-16T10:26:31.452Z,87.10
2018-05-16T10:29:00.814Z,85.50
2018-05-16T10:31:30.039Z,86.10
2018-05-16T10:33:59.436Z,85.70
2018-05-16T10:36:29.433Z,85.10
2018-05-16T10:38:59.250Z,85.00
2018-05-16T10:41:29.438Z,82.10
2018-05-16T10:43:59.698Z,82.40
2018-05-16T10:46:29.204Z,82.20
2018-05-16T10:48:58.588Z,80.70
2018-05-16T10:51:28.211Z,78.50
2018-05-16T10:53:57.452Z,78.10
2018-05-16T10:56:26.831Z,76.50
2018-05-16T10:58:56.826Z,76.10
2018-05-16T11:01:26.171Z,76.00
2018-05-16T11:03:55.402Z,77.10
2018-05-16T11:06:24.838Z,76.10
2018-05-16T11:08:54.418Z,74.50
2018-05-16T11:11:24.258Z,75.40
2018-05-16T11:13:53.998Z,73.60
2018-05-16T11:16:24.159Z,74.10
2018-05-16T11:18:53.800Z,74.00
2018-05-16T11:21:23.738Z,72.50
2018-05-16T11:23:53.723Z,73.60
2018-05-16T11:26:23.042Z,74.40
2018-05-16T11:28:52.276Z,75.80
2018-05-16T11:31:21.741Z,77.10
2018-05-16T11:33:51.022Z,77.10
2018-05-16T11:36:20.251Z,77.80
2018-05-16T11:38:49.647Z,78.70
2018-05-16T11:41:18.878Z,78.00
2018-05-16T11:43:48.446Z,79.50
2018-05-16T11:46:17.691Z,77.90
2018-05-16T11:48:47.065Z,78.30
2018-05-16T11:51:16.971Z,79.20
2018-05-16T11:53:47.082Z,77.00
2018-05-16T11:56:16.325Z,74.30
2018-05-16T11:58:45.694Z,74.10
2018-05-16T12:01:15.110Z,71.40
2018-05-16T12:03:44.494Z,69.10
2018-05-16T12:06:13.740Z,66.70
2018-05-16T12:08:43.095Z,66.40
2018-05-16T12:11:12.575Z,68.60
2018-05-16T12:13:42.102Z,68.00
2018-05-16T12:16:11.354Z,68.50
2018-05-16T12:18:41.136Z,66.60
2018-05-16T12:21:11.137Z,61.80
2018-05-16T12:23:40.546Z,61.60
2018-05-16T12:26:09.775Z,61.70
2018-05-16T12:28:39.147Z,61.60
2018-05-16T12:31:09.225Z,64.40
2018-05-16T12:33:38.766Z,65.40
2018-05-16T12:36:08.002Z,65.70
2018-05-16T12:38:37.384Z,60.50
2018-05-16T12:41:07.388Z,58.70
2018-05-16T12:43:36.791Z,59.10
2018-05-16T12:46:06.023Z,59.20
2018-05-16T12:48:35.260Z,59.20
2018-05-16T12:51:04.708Z,58.90
2018-05-16T12:53:34.046Z,60.40
2018-05-16T12:56:03.511Z,59.00
2018-05-16T12:58:33.011Z,59.70
2018-05-16T13:01:02.523Z,58.50
2018-05-16T13:03:31.757Z,58.80
2018-05-16T13:06:01.118Z,58.70
2018-05-16T13:08:30.341Z,58.60
2018-05-16T13:10:59.697Z,60.10
2018-05-16T13:13:29.287Z,59.50
2018-05-16T13:15:58.632Z,60.40
2018-05-16T13:18:27.875Z,62.00
2018-05-16T13:20:57.334Z,63.00
2018-05-16T13:23:27.902Z,63.40
2018-05-16T13:25:57.370Z,59.70
2018-05-16T13:28:26.877Z,59.90
2018-05-16T13:30:56.548Z,60.70
2018-05-16T13:33:25.999Z,60.70
2018-05-16T13:35:55.250Z,61.00
2018-05-16T13:38:24.594Z,61.60
2018-05-16T13:40:53.818Z,61.40
2018-05-16T13:43:24.116Z,62.00
2018-05-16T13:45:53.347Z,61.90
2018-05-16T13:48:22.917Z,61.90
2018-05-16T13:50:52.231Z,63.00
2018-05-16T13:53:23.480Z,61.80
2018-05-16T13:55:52.704Z,61.90
2018-05-16T13:58:22.073Z,60.30
2018-05-16T14:00:51.298Z,61.20
2018-05-16T14:03:20.884Z,61.10
2018-05-16T14:05:51.178Z,61.20
2018-05-16T14:08:20.627Z,60.70
2018-05-16T14:10:50.116Z,61.60
2018-05-16T14:13:19.562Z,62.50
2018-05-16T14:15:48.914Z,63.60
2018-05-16T14:18:18.146Z,62.90
2018-05-16T14:20:47.497Z,63.10
2018-05-16T14:23:16.736Z,60.60
2018-05-16T14:25:47.076Z,60.60
2018-05-16T14:28:17.076Z,61.20
2018-05-16T14:30:46.435Z,62.00
2018-05-16T14:33:15.673Z,60.50
2018-05-16T14:35:45.069Z,60.40
2018-05-16T14:38:15.178Z,59.90
2018-05-16T14:40:44.593Z,59.70
2018-05-16T14:43:13.823Z,61.40
2018-05-16T14:45:43.360Z,62.10
2018-05-16T14:48:12.875Z,61.90
2018-05-16T14:50:42.398Z,62.60
2018-05-16T14:53:12.262Z,64.00
2018-05-16T14:55:41.503Z,64.30
2018-05-16T14:58:11.048Z,64.30
2018-05-16T15:00:41.251Z,64.20
2018-05-16T15:03:12.296Z,65.10
2018-05-16T15:05:41.539Z,65.10
2018-05-16T15:08:11.051Z,65.30
2018-05-16T15:10:40.262Z,66.00
2018-05-16T15:13:09.511Z,64.20
2018-05-16T15:15:39.006Z,65.10
2018-05-16T15:18:08.200Z,64.90
2018-05-16T15:20:37.707Z,64.50
2018-05-16T15:23:06.934Z,63.70
2018-05-16T15:25:36.290Z,64.40
2018-05-16T15:28:05.527Z,64.00
2018-05-16T15:30:34.912Z,64.40
2018-05-16T15:33:04.963Z,62.80
2018-05-16T15:35:34.255Z,62.70
2018-05-16T15:38:04.268Z,62.10
2018-05-16T15:40:34.071Z,62.00
2018-05-16T15:43:03.595Z,61.60
2018-05-16T15:45:33.097Z,62.00
2018-05-16T15:48:03.063Z,62.00
2018-05-16T15:50:32.509Z,62.30
2018-05-16T15:53:01.737Z,62.80
2018-05-16T15:55:31.166Z,63.60
2018-05-16T15:58:00.513Z,63.00
2018-05-16T16:00:30.837Z,64.60
2018-05-16T16:03:00.064Z,64.60
2018-05-16T16:05:29.440Z,66.20
2018-05-16T16:07:58.802Z,66.30
2018-05-16T16:10:28.862Z,65.30
2018-05-16T16:12:58.086Z,64.00
2018-05-16T16:15:28.164Z,64.90
2018-05-16T16:17:57.575Z,65.70
2018-05-16T16:20:26.805Z,66.10
2018-05-16T16:22:56.170Z,64.90
2018-05-16T16:25:26.381Z,65.00
2018-05-16T16:27:55.814Z,63.30
2018-05-16T16:30:25.036Z,63.10
2018-05-16T16:32:54.398Z,64.40
2018-05-16T16:35:23.628Z,64.40
2018-05-16T16:37:53.839Z,64.40
2018-05-16T16:40:23.058Z,65.70
2018-05-16T16:42:52.427Z,67.10
2018-05-16T16:45:21.676Z,70.40
2018-05-16T16:47:51.097Z,73.00
2018-05-16T16:50:20.376Z,74.50
2018-05-16T16:52:50.451Z,75.50
2018-05-16T16:55:20.515Z,75.50
2018-05-16T16:57:50.081Z,77.00
2018-05-16T17:00:20.424Z,76.90
2018-05-16T17:02:49.648Z,77.10
2018-05-16T17:05:19.038Z,78.00
2018-05-16T17:07:48.273Z,76.40
2018-05-16T17:10:17.807Z,76.70
2018-05-16T17:12:47.052Z,77.10
2018-05-16T17:15:16.418Z,76.70
2018-05-16T17:17:46.054Z,76.70
2018-05-16T17:20:15.438Z,77.20
2018-05-16T17:22:44.646Z,75.60
2018-05-16T17:25:14.034Z,76.90
2018-05-16T17:27:43.254Z,76.80
2018-05-16T17:30:12.606Z,77.50
2018-05-16T17:32:41.843Z,79.30
2018-05-16T17:35:11.219Z,81.20
2018-05-16T17:37:40.458Z,82.10
2018-05-16T17:40:09.872Z,82.60
2018-05-16T17:42:39.832Z,84.00
2018-05-16T17:45:09.579Z,84.60
2018-05-16T17:47:39.612Z,85.50
2018-05-16T17:50:08.871Z,85.50
2018-05-16T17:52:39.113Z,86.90
2018-05-16T17:55:08.620Z,86.90
2018-05-16T17:57:38.946Z,90.50
2018-05-16T18:00:08.950Z,91.40
2018-05-16T18:02:38.366Z,91.30
2018-05-16T18:05:08.376Z,93.00
2018-05-16T18:07:37.779Z,93.00
2018-05-16T18:10:07.023Z,94.00
2018-05-16T18:12:36.498Z,95.00
2018-05-16T18:15:25.127Z,95.90
2018-05-16T18:17:54.855Z,97.00
2018-05-16T18:20:24.554Z,97.60
2018-05-16T18:22:54.068Z,98.10
2018-05-16T18:25:23.331Z,98.60
2018-05-16T18:27:53.494Z,98.80
2018-05-16T18:30:23.498Z,99.70
2018-05-16T18:32:52.906Z,99.90
2018-05-16T18:35:22.147Z,99.90
2018-05-16T18:37:51.507Z,99.90
2018-05-16T18:40:20.759Z,99.90
2018-05-16T18:42:50.228Z,99.90
2018-05-16T18:45:19.638Z,99.90
2018-05-16T18:47:50.466Z,99.90
2018-05-16T18:50:19.809Z,99.90
2018-05-16T18:52:49.056Z,99.90
2018-05-16T18:55:18.390Z,99.90
2018-05-16T18:57:47.631Z,99.90
2018-05-16T19:00:17.906Z,99.90
2018-05-16T19:02:47.237Z,99.90
2018-05-16T19:05:16.587Z,99.90
2018-05-16T19:07:45.822Z,99.90
2018-05-16T19:10:15.395Z,99.90
2018-05-16T19:12:44.898Z,99.90
2018-05-16T19:15:15.028Z,99.90
2018-05-16T19:17:46.412Z,99.90
2018-05-16T19:20:16.162Z,99.90
2018-05-16T19:22:47.382Z,99.90
2018-05-16T19:25:16.735Z,99.90
2018-05-16T19:27:45.963Z,99.90
2018-05-16T19:30:15.338Z,99.90
2018-05-16T19:32:45.339Z,99.90
2018-05-16T19:35:14.706Z,99.90
2018-05-16T19:37:44.114Z,99.90
2018-05-16T19:40:15.237Z,99.90
2018-05-16T19:42:44.635Z,99.90
2018-05-16T19:45:14.032Z,99.90
2018-05-16T19:47:43.533Z,99.90
2018-05-16T19:50:13.543Z,99.90
2018-05-16T19:52:42.942Z,99.90
2018-05-16T19:55:12.220Z,99.90
2018-05-16T19:57:41.566Z,99.90
2018-05-16T20:00:10.838Z,99.90
2018-05-16T20:02:41.162Z,99.90
2018-05-16T20:05:11.176Z,99.90
2018-05-16T20:07:41.403Z,99.90
2018-05-16T20:10:11.410Z,99.90
2018-05-16T20:12:40.819Z,99.90
2018-05-16T20:15:10.071Z,99.90
2018-05-16T20:17:39.644Z,99.90
2018-05-16T20:20:09.661Z,99.90
2018-05-16T20:22:39.256Z,99.90
2018-05-16T20:25:08.966Z,99.90
2018-05-16T20:27:38.369Z,99.90
2018-05-16T20:30:08.547Z,99.90
2018-05-16T20:32:37.992Z,99.90
2018-05-16T20:35:08.098Z,99.90
2018-05-16T20:37:37.618Z,99.90
2018-05-16T20:40:06.871Z,99.90
2018-05-16T20:42:36.117Z,99.90
2018-05-16T20:45:05.935Z,99.90
2018-05-16T20:47:35.171Z,99.90
2018-05-16T20:50:04.535Z,99.90
2018-05-16T20:52:33.772Z,99.90
2018-05-16T20:55:03.346Z,99.90
2018-05-16T20:57:32.582Z,99.90
2018-05-16T21:00:01.964Z,99.90
2018-05-16T21:02:32.432Z,99.90
2018-05-16T21:05:03.003Z,99.90
2018-05-16T21:07:32.236Z,99.90
2018-05-16T21:10:02.487Z,99.90
2018-05-16T21:12:32.630Z,99.90
2018-05-16T21:15:02.050Z,99.90
2018-05-16T21:17:32.199Z,99.90
2018-05-16T21:20:02.115Z,99.90
2018-05-16T21:22:32.106Z,99.90
2018-05-16T21:25:01.529Z,99.90
2018-05-16T21:27:30.751Z,99.90
2018-05-16T21:30:00.311Z,99.90
2018-05-16T21:32:29.550Z,99.90
2018-05-16T21:34:58.928Z,99.90
2018-05-16T21:37:28.164Z,99.90
2018-05-16T21:39:57.512Z,99.90
2018-05-16T21:42:26.816Z,99.90
2018-05-16T21:44:56.332Z,99.90
2018-05-16T21:47:25.577Z,99.90
2018-05-16T21:49:54.822Z,99.90
2018-05-16T21:52:24.182Z,99.90
2018-05-16T21:54:53.527Z,99.90
2018-05-16T21:57:23.042Z,99.90
2018-05-16T21:59:52.456Z,99.90
2018-05-16T22:02:21.847Z,99.90
2018-05-16T22:04:51.082Z,99.90
2018-05-16T22:07:20.449Z,99.90
2018-05-16T22:09:49.689Z,99.90
2018-05-16T22:12:19.052Z,99.90
2018-05-16T22:14:49.960Z,99.90
2018-05-16T22:17:19.394Z,99.90
2018-05-16T22:19:48.996Z,99.90
2018-05-16T22:22:19.426Z,99.90
2018-05-16T22:24:48.931Z,99.90
2018-05-16T22:27:18.444Z,99.90
2018-05-16T22:29:47.679Z,99.90
2018-05-16T22:32:22.466Z,99.90
2018-05-16T22:34:57.307Z,99.90
2018-05-16T22:37:32.430Z,99.90
2018-05-16T22:40:07.227Z,99.90
2018-05-16T22:42:36.154Z,99.90
2018-05-16T22:45:05.391Z,99.90
2018-05-16T22:47:34.763Z,99.90
2018-05-16T22:50:03.996Z,99.90
2018-05-16T22:52:33.443Z,99.90
2018-05-16T22:55:02.951Z,99.90
2018-05-16T22:57:32.599Z,99.90
2018-05-16T23:00:02.598Z,99.90
2018-05-16T23:02:32.210Z,99.90
2018-05-16T23:05:01.447Z,99.90
2018-05-16T23:07:30.682Z,99.90
2018-05-16T23:10:00.111Z,99.90
2018-05-16T23:12:29.350Z,99.90
2018-05-16T23:14:58.914Z,99.90
2018-05-16T23:17:28.150Z,99.90
2018-05-16T23:19:57.515Z,99.90
2018-05-16T23:22:27.330Z,99.90
2018-05-16T23:24:57.452Z,99.90
2018-05-16T23:27:27.181Z,99.90
2018-05-16T23:29:56.568Z,99.90
2018-05-16T23:32:25.811Z,99.90
2018-05-16T23:34:55.168Z,99.90
2018-05-16T23:37:24.398Z,99.90
2018-05-16T23:39:53.742Z,99.90
2018-05-16T23:42:23.819Z,99.90
2018-05-16T23:44:53.187Z,99.90
2018-05-16T23:47:22.979Z,99.90
2018-05-16T23:49:52.409Z,99.90
2018-05-16T23:52:22.497Z,99.90
2018-05-16T23:54:52.055Z,99.90
2018-05-16T23:57:21.527Z,99.90
2018-05-16T23:59:50.765Z,99.90
